createdAt,value
2022-08-08T00:01:06.787Z,7.13
2022-08-08T00:03:43.881Z,6.77
2022-08-08T00:06:28.335Z,7.03
2022-08-08T00:09:07.691Z,6.80
2022-08-08T00:11:47.050Z,8.03
2022-08-08T00:14:48.006Z,8.70
2022-08-08T00:17:48.304Z,8.60
2022-08-08T00:20:37.372Z,9.40
2022-08-08T00:23:10.241Z,8.23
2022-08-08T00:25:46.772Z,7.83
2022-08-08T00:28:35.232Z,7.50
2022-08-08T00:32:15.320Z,7.67
2022-08-08T00:34:28.006Z,8.47
2022-08-08T00:37:03.608Z,7.33
2022-08-08T00:41:12.598Z,8.13
2022-08-08T00:42:36.854Z,8.20
2022-08-08T00:45:29.552Z,7.47
2022-08-08T00:48:29.262Z,7.70
2022-08-08T00:50:55.770Z,8.60
2022-08-08T00:53:43.637Z,7.97
2022-08-08T00:56:36.108Z,7.27
2022-08-08T00:59:08.219Z,8.10
2022-08-08T01:01:44.017Z,7.37
2022-08-08T01:04:14.193Z,7.63
2022-08-08T01:07:01.616Z,7.60
2022-08-08T01:09:48.683Z,7.23
2022-08-08T01:12:36.653Z,6.83
2022-08-08T01:15:37.058Z,7.03
2022-08-08T01:18:25.349Z,6.53
2022-08-08T01:21:07.333Z,7.30
2022-08-08T01:24:03.872Z,5.90
2022-08-08T01:26:40.063Z,6.50
2022-08-08T01:29:15.618Z,6.90
2022-08-08T01:32:13.109Z,6.87
2022-08-08T01:34:55.526Z,6.63
2022-08-08T01:37:57.203Z,6.80
2022-08-08T01:40:34.539Z,6.13
2022-08-08T01:43:24.464Z,6.50
2022-08-08T01:46:05.391Z,5.97
2022-08-08T01:48:51.246Z,6.57
2022-08-08T01:51:32.239Z,5.93
2022-08-08T01:55:18.788Z,6.60
2022-08-08T01:57:33.736Z,6.40
2022-08-08T02:00:27.995Z,6.13
2022-08-08T02:03:49.258Z,7.20
2022-08-08T02:06:32.711Z,7.37
2022-08-08T02:09:18.019Z,6.67
2022-08-08T02:11:58.585Z,6.13
2022-08-08T02:14:49.748Z,6.60
2022-08-08T02:17:43.414Z,7.77
2022-08-08T02:21:01.698Z,7.90
2022-08-08T02:23:08.610Z,8.03
2022-08-08T02:26:00.814Z,9.17
2022-08-08T02:28:36.342Z,9.53
2022-08-08T02:31:04.612Z,9.97
2022-08-08T02:34:00.618Z,9.50
2022-08-08T02:36:28.550Z,10.63
2022-08-08T02:39:01.128Z,10.50
2022-08-08T02:42:03.741Z,11.67
2022-08-08T02:44:42.464Z,10.63
2022-08-08T02:47:16.098Z,8.87
2022-08-08T02:50:17.740Z,9.27
2022-08-08T02:52:50.711Z,9.67
2022-08-08T02:55:31.786Z,9.80
2022-08-08T02:58:26.914Z,11.73
2022-08-08T03:01:14.857Z,12.00
2022-08-08T03:05:03.006Z,13.10
2022-08-08T03:06:58.914Z,12.40
2022-08-08T03:09:28.631Z,12.93
2022-08-08T03:12:14.429Z,13.57
2022-08-08T03:16:01.025Z,11.90
2022-08-08T03:17:59.913Z,12.10
2022-08-08T03:20:42.220Z,10.70
2022-08-08T03:23:14.479Z,10.47
2022-08-08T03:25:50.326Z,10.87
2022-08-08T03:28:19.114Z,11.60
2022-08-08T03:30:48.809Z,11.70
2022-08-08T03:33:54.659Z,12.50
2022-08-08T03:36:05.216Z,10.43
2022-08-08T03:38:54.931Z,8.60
2022-08-08T03:42:26.707Z,9.07
2022-08-08T03:44:17.794Z,9.40
2022-08-08T03:46:47.875Z,9.37
2022-08-08T03:49:58.196Z,9.10
2022-08-08T03:52:12.860Z,8.77
2022-08-08T03:55:02.000Z,8.20
2022-08-08T03:58:30.757Z,7.40
2022-08-08T04:00:18.418Z,7.63
2022-08-08T04:02:54.554Z,7.63
2022-08-08T04:05:28.005Z,7.10
2022-08-08T04:07:56.242Z,7.80
2022-08-08T04:10:24.521Z,6.57
2022-08-08T04:12:51.027Z,6.93
2022-08-08T04:15:17.907Z,6.30
2022-08-08T04:17:59.444Z,7.30
2022-08-08T04:20:28.152Z,7.23
2022-08-08T04:22:56.869Z,7.10
2022-08-08T04:25:29.871Z,7.27
2022-08-08T04:28:02.157Z,7.13
2022-08-08T04:30:44.236Z,7.00
2022-08-08T04:33:11.368Z,6.83
2022-08-08T04:35:39.930Z,7.57
2022-08-08T04:38:21.152Z,6.17
2022-08-08T04:40:51.772Z,7.00
2022-08-08T04:43:22.195Z,6.40
2022-08-08T04:45:49.560Z,6.53
2022-08-08T04:48:16.112Z,6.55
2022-08-08T04:50:46.133Z,6.20
2022-08-08T04:53:52.340Z,5.50
2022-08-08T04:55:59.553Z,5.47
2022-08-08T04:58:26.231Z,6.20
2022-08-08T05:00:52.814Z,6.20
2022-08-08T05:04:09.154Z,6.70
2022-08-08T05:06:13.032Z,6.30
2022-08-08T05:08:45.000Z,6.65
2022-08-08T05:11:18.691Z,7.32
2022-08-08T05:13:54.863Z,6.47
2022-08-08T05:16:50.859Z,6.38
2022-08-08T05:20:09.731Z,6.10
2022-08-08T05:22:00.794Z,6.47
2022-08-08T05:24:27.687Z,6.13
2022-08-08T05:26:54.164Z,5.50
2022-08-08T05:29:20.924Z,6.03
2022-08-08T05:32:03.895Z,5.65
2022-08-08T05:34:51.492Z,6.90
2022-08-08T05:37:28.374Z,6.10
2022-08-08T05:40:14.537Z,6.80
2022-08-08T05:42:43.141Z,6.80
2022-08-08T05:45:30.689Z,6.57
2022-08-08T05:48:01.180Z,6.40
2022-08-08T05:50:36.331Z,6.57
2022-08-08T05:53:54.640Z,6.40
2022-08-08T05:56:10.198Z,6.38
2022-08-08T05:58:57.586Z,6.23
2022-08-08T06:01:56.841Z,6.57
2022-08-08T06:04:14.037Z,6.20
2022-08-08T06:06:51.121Z,7.07
2022-08-08T06:09:58.971Z,6.70
2022-08-08T06:12:09.008Z,6.13
2022-08-08T06:14:48.777Z,5.88
2022-08-08T06:17:19.480Z,6.38
2022-08-08T06:19:46.675Z,5.68
2022-08-08T06:25:01.739Z,5.32
2022-08-08T06:27:35.395Z,5.65
2022-08-08T06:30:07.297Z,4.80
2022-08-08T06:32:47.788Z,5.50
2022-08-08T06:36:08.002Z,4.25
2022-08-08T06:38:05.264Z,5.82
2022-08-08T06:40:48.689Z,5.70
2022-08-08T06:43:28.594Z,5.78
2022-08-08T06:46:00.371Z,5.72
2022-08-08T06:48:27.398Z,5.13
2022-08-08T06:50:55.717Z,4.80
2022-08-08T06:53:22.778Z,5.05
2022-08-08T06:56:00.646Z,4.80
2022-08-08T06:58:30.707Z,4.85
2022-08-08T07:00:58.894Z,5.03
2022-08-08T07:03:51.920Z,5.47
2022-08-08T07:06:28.583Z,5.03
2022-08-08T07:09:03.479Z,5.85
2022-08-08T07:11:51.203Z,5.05
2022-08-08T07:14:21.212Z,5.60
2022-08-08T07:16:56.066Z,5.05
2022-08-08T07:19:36.841Z,5.93
2022-08-08T07:22:11.998Z,6.10
2022-08-08T07:24:49.035Z,5.72
2022-08-08T07:27:18.807Z,6.10
2022-08-08T07:30:01.665Z,6.38
2022-08-08T07:32:32.397Z,5.38
2022-08-08T07:35:06.466Z,6.35
2022-08-08T07:37:56.024Z,5.25
2022-08-08T07:40:29.470Z,6.20
2022-08-08T07:42:59.339Z,6.72
2022-08-08T07:45:26.503Z,6.07
2022-08-08T07:48:02.517Z,5.88
2022-08-08T07:50:29.146Z,5.70
2022-08-08T07:52:57.543Z,5.30
2022-08-08T07:55:28.547Z,5.72
2022-08-08T07:58:12.797Z,5.10
2022-08-08T08:00:41.873Z,5.55
2022-08-08T08:03:23.661Z,4.93
2022-08-08T08:05:53.271Z,5.78
2022-08-08T08:08:21.115Z,5.47
2022-08-08T08:10:51.407Z,4.28
2022-08-08T08:14:08.328Z,4.65
2022-08-08T08:16:40.974Z,4.90
2022-08-08T08:19:12.609Z,5.22
2022-08-08T08:21:57.438Z,4.68
2022-08-08T08:24:26.742Z,4.85
2022-08-08T08:26:58.963Z,4.38
2022-08-08T08:29:27.927Z,4.53
2022-08-08T08:31:58.369Z,4.78
2022-08-08T08:34:32.391Z,4.82
2022-08-08T08:37:00.565Z,4.47
2022-08-08T08:39:59.246Z,3.97
2022-08-08T08:42:19.289Z,4.50
2022-08-08T08:44:59.423Z,4.10
2022-08-08T08:47:26.632Z,4.30
2022-08-08T08:50:00.395Z,3.83
2022-08-08T08:52:28.646Z,3.92
2022-08-08T08:54:56.915Z,3.92
2022-08-08T08:57:23.783Z,4.10
2022-08-08T08:59:59.801Z,3.60
2022-08-08T09:02:33.200Z,3.40
2022-08-08T09:05:02.334Z,3.53
2022-08-08T09:07:39.505Z,3.47
2022-08-08T09:10:17.389Z,3.40
2022-08-08T09:12:46.449Z,3.70
2022-08-08T09:15:13.327Z,2.97
2022-08-08T09:17:41.511Z,2.75
2022-08-08T09:21:59.577Z,3.53
2022-08-08T09:23:10.583Z,3.67
2022-08-08T09:25:54.857Z,3.35
2022-08-08T09:28:37.875Z,3.70
2022-08-08T09:31:13.529Z,3.75
2022-08-08T09:34:15.556Z,3.17
2022-08-08T09:36:28.443Z,3.75
2022-08-08T09:38:58.062Z,3.85
2022-08-08T09:41:54.703Z,3.53
2022-08-08T09:44:46.667Z,3.17
2022-08-08T09:47:26.525Z,3.47
2022-08-08T09:50:09.924Z,3.22
2022-08-08T09:52:55.950Z,3.67
2022-08-08T09:56:03.012Z,3.70
2022-08-08T09:58:27.925Z,3.63
2022-08-08T10:01:15.646Z,3.83
2022-08-08T10:03:56.332Z,2.85
2022-08-08T10:06:26.748Z,3.67
2022-08-08T10:08:56.750Z,3.53
2022-08-08T10:12:26.446Z,3.45
2022-08-08T10:14:27.996Z,2.63
2022-08-08T10:16:58.628Z,2.70
2022-08-08T10:19:45.906Z,2.90
2022-08-08T10:22:21.160Z,3.50
2022-08-08T10:24:48.204Z,3.38
2022-08-08T10:27:15.409Z,3.00
2022-08-08T10:29:59.570Z,2.53
2022-08-08T10:32:37.531Z,3.22
2022-08-08T10:35:11.730Z,3.00
2022-08-08T10:37:54.992Z,3.47
2022-08-08T10:40:22.204Z,2.92
2022-08-08T10:42:50.192Z,2.95
2022-08-08T10:45:16.818Z,2.45
2022-08-08T10:47:53.590Z,2.97
2022-08-08T10:50:23.702Z,3.33
2022-08-08T10:52:50.692Z,3.08
2022-08-08T10:55:41.080Z,2.72
2022-08-08T10:58:09.539Z,2.92
2022-08-08T11:00:53.396Z,2.83
2022-08-08T11:03:52.248Z,2.72
2022-08-08T11:06:15.540Z,2.53
2022-08-08T11:08:53.483Z,2.88
2022-08-08T11:11:32.515Z,3.35
2022-08-08T11:14:08.180Z,2.92
2022-08-08T11:16:42.930Z,2.88
2022-08-08T11:19:15.760Z,2.72
2022-08-08T11:21:55.418Z,2.73
2022-08-08T11:24:24.741Z,2.40
2022-08-08T11:26:56.395Z,2.88
2022-08-08T11:29:24.933Z,2.90
2022-08-08T11:32:09.488Z,2.78
2022-08-08T11:34:58.962Z,2.85
2022-08-08T11:38:36.035Z,2.65
2022-08-08T11:40:16.216Z,2.45
2022-08-08T11:42:50.912Z,3.00
2022-08-08T11:45:20.927Z,2.65
2022-08-08T11:48:02.508Z,3.10
2022-08-08T11:50:33.749Z,2.63
2022-08-08T11:53:00.854Z,2.70
2022-08-08T11:55:35.463Z,2.72
2022-08-08T11:58:08.384Z,2.30
2022-08-08T12:00:49.118Z,2.03
2022-08-08T12:03:21.435Z,2.60
2022-08-08T12:05:48.397Z,2.15
2022-08-08T12:08:15.157Z,2.30
2022-08-08T12:10:48.776Z,2.50
2022-08-08T12:13:16.170Z,2.00
2022-08-08T12:15:49.088Z,2.75
2022-08-08T12:18:21.591Z,2.33
2022-08-08T12:20:53.365Z,6.13
2022-08-08T12:23:43.244Z,2.17
2022-08-08T12:26:28.341Z,2.35
2022-08-08T12:29:02.733Z,2.30
2022-08-08T12:31:39.184Z,2.78
2022-08-08T12:34:19.363Z,2.25
2022-08-08T12:36:46.352Z,1.98
2022-08-08T12:39:13.277Z,2.50
2022-08-08T12:42:01.589Z,2.58
2022-08-08T12:44:32.241Z,2.47
2022-08-08T12:47:01.230Z,2.20
2022-08-08T12:49:43.825Z,2.40
2022-08-08T12:52:28.113Z,2.20
2022-08-08T12:55:09.393Z,2.08
2022-08-08T12:57:56.080Z,2.35
2022-08-08T13:00:33.843Z,2.10
2022-08-08T13:03:05.589Z,1.70
2022-08-08T13:06:04.101Z,1.85
2022-08-08T13:08:22.005Z,1.60
2022-08-08T13:10:56.210Z,1.70
2022-08-08T13:13:36.940Z,1.90
2022-08-08T13:16:36.396Z,2.08
2022-08-08T13:19:12.341Z,1.60
2022-08-08T13:21:52.832Z,1.77
2022-08-08T13:24:40.940Z,1.70
2022-08-08T13:27:13.590Z,1.85
2022-08-08T13:29:49.246Z,1.73
2022-08-08T13:32:17.048Z,2.00
2022-08-08T13:34:43.522Z,1.95
2022-08-08T13:37:19.886Z,1.70
2022-08-08T13:39:57.584Z,1.60
2022-08-08T13:42:25.153Z,1.90
2022-08-08T13:44:58.714Z,1.70
2022-08-08T13:47:25.899Z,1.88
2022-08-08T13:50:35.281Z,2.30
2022-08-08T13:52:51.293Z,1.70
2022-08-08T13:55:28.796Z,1.90
2022-08-08T13:58:08.130Z,1.90
2022-08-08T14:00:45.435Z,2.10
2022-08-08T14:03:53.083Z,2.55
2022-08-08T14:06:32.418Z,2.15
2022-08-08T14:08:58.241Z,1.80
2022-08-08T14:11:29.201Z,1.75
2022-08-08T14:14:00.142Z,1.95
2022-08-08T14:16:28.710Z,1.88
2022-08-08T14:19:00.614Z,1.70
2022-08-08T14:21:52.023Z,2.00
2022-08-08T14:24:33.320Z,1.90
2022-08-08T14:27:01.649Z,1.70
2022-08-08T14:29:34.494Z,1.55
2022-08-08T14:32:12.530Z,1.92
2022-08-08T14:34:43.214Z,1.40
2022-08-08T14:37:12.853Z,1.73
2022-08-08T14:39:47.548Z,1.52
2022-08-08T14:42:16.962Z,1.65
2022-08-08T14:44:53.041Z,1.88
2022-08-08T14:47:21.742Z,1.60
2022-08-08T14:50:06.630Z,1.58
2022-08-08T14:52:44.425Z,2.15
2022-08-08T14:55:13.231Z,1.55
2022-08-08T14:58:03.005Z,1.65
2022-08-08T15:00:28.054Z,1.95
2022-08-08T15:03:14.853Z,1.52
2022-08-08T15:05:53.681Z,1.45
2022-08-08T15:08:35.689Z,1.80
2022-08-08T15:11:06.349Z,1.38
2022-08-08T15:13:40.347Z,1.77
2022-08-08T15:16:19.872Z,2.05
2022-08-08T15:18:51.220Z,1.80
2022-08-08T15:21:18.742Z,1.75
2022-08-08T15:23:51.518Z,1.50
2022-08-08T15:26:20.976Z,2.08
2022-08-08T15:28:53.304Z,1.88
2022-08-08T15:31:55.845Z,1.50
2022-08-08T15:34:29.877Z,1.48
2022-08-08T15:36:59.595Z,1.92
2022-08-08T15:39:38.070Z,1.50
2022-08-08T15:42:10.549Z,1.58
2022-08-08T15:44:40.501Z,1.88
2022-08-08T15:47:15.320Z,2.00
2022-08-08T15:49:43.127Z,1.88
2022-08-08T15:52:12.938Z,1.92
2022-08-08T15:54:40.414Z,1.58
2022-08-08T15:57:08.915Z,1.80
2022-08-08T16:00:06.511Z,1.98
2022-08-08T16:02:31.467Z,1.73
2022-08-08T16:04:59.260Z,2.42
2022-08-08T16:07:51.913Z,1.65
2022-08-08T16:13:09.545Z,2.15
2022-08-08T16:13:34.351Z,2.38
2022-08-08T16:15:58.185Z,1.77
2022-08-08T16:18:29.761Z,1.80
2022-08-08T16:21:00.407Z,2.13
2022-08-08T16:23:28.029Z,2.10
2022-08-08T16:26:03.481Z,2.15
2022-08-08T16:28:35.116Z,1.92
2022-08-08T16:31:07.431Z,2.08
2022-08-08T16:33:38.646Z,1.70
2022-08-08T16:36:08.894Z,1.80
2022-08-08T16:38:36.436Z,2.08
2022-08-08T16:41:10.909Z,1.92
2022-08-08T16:43:49.071Z,1.48
2022-08-08T16:46:38.674Z,2.22
2022-08-08T16:49:04.346Z,1.60
2022-08-08T16:55:04.276Z,1.85
2022-08-08T16:55:06.463Z,1.58
2022-08-08T16:57:23.435Z,1.70
2022-08-08T16:59:52.432Z,2.20
2022-08-08T17:02:37.809Z,2.00
2022-08-08T17:05:06.253Z,1.70
2022-08-08T17:07:32.743Z,2.13
2022-08-08T17:09:59.214Z,2.10
2022-08-08T17:12:28.429Z,2.00
2022-08-08T17:14:55.570Z,1.70
2022-08-08T17:17:41.307Z,2.20
2022-08-08T17:20:09.386Z,1.83
2022-08-08T17:22:42.192Z,1.67
2022-08-08T17:25:09.351Z,1.92
2022-08-08T17:27:46.205Z,1.95
2022-08-08T17:30:27.326Z,1.95
2022-08-08T17:34:49.302Z,2.28
2022-08-08T17:35:56.134Z,2.38
2022-08-08T17:38:30.965Z,2.78
2022-08-08T17:40:57.670Z,2.50
2022-08-08T17:43:26.757Z,1.92
2022-08-08T17:45:53.660Z,2.03
2022-08-08T17:48:30.643Z,2.33
2022-08-08T17:50:57.781Z,2.42
2022-08-08T17:53:42.973Z,2.53
2022-08-08T17:56:10.313Z,2.40
2022-08-08T17:58:38.869Z,1.98
2022-08-08T18:01:10.085Z,3.33
2022-08-08T18:03:36.852Z,2.20
2022-08-08T18:06:22.029Z,2.62
2022-08-08T18:08:57.487Z,2.40
2022-08-08T18:11:24.871Z,2.50
2022-08-08T18:13:56.004Z,2.60
2022-08-08T18:16:23.621Z,2.92
2022-08-08T18:18:56.357Z,2.92
2022-08-08T18:21:59.564Z,3.10
2022-08-08T18:24:18.722Z,3.30
2022-08-08T18:26:54.890Z,2.97
2022-08-08T18:29:33.924Z,2.72
2022-08-08T18:32:03.546Z,2.15
2022-08-08T18:34:30.626Z,2.25
2022-08-08T18:37:00.444Z,2.05
2022-08-08T18:39:27.437Z,2.22
2022-08-08T18:41:59.923Z,2.55
2022-08-08T18:44:32.807Z,2.05
2022-08-08T18:47:01.345Z,2.42
2022-08-08T18:49:32.375Z,2.70
2022-08-08T18:52:07.965Z,2.35
2022-08-08T18:54:34.753Z,2.03
2022-08-08T18:57:03.972Z,1.85
2022-08-08T18:59:38.530Z,2.25
2022-08-08T19:02:25.498Z,2.22
2022-08-08T19:04:54.074Z,2.70
2022-08-08T19:07:23.217Z,2.13
2022-08-08T19:10:15.501Z,2.08
2022-08-08T19:12:37.835Z,1.58
2022-08-08T19:15:10.845Z,2.00
2022-08-08T19:17:48.035Z,1.95
2022-08-08T19:20:25.500Z,2.53
2022-08-08T19:22:52.859Z,1.67
2022-08-08T19:26:01.795Z,1.88
2022-08-08T19:28:19.389Z,2.00
2022-08-08T19:30:51.377Z,2.40
2022-08-08T19:33:51.703Z,2.03
2022-08-08T19:36:17.042Z,2.00
2022-08-08T19:38:54.015Z,1.70
2022-08-08T19:41:21.476Z,1.90
2022-08-08T19:44:03.204Z,1.92
2022-08-08T19:46:33.455Z,1.80
2022-08-08T19:49:00.760Z,2.17
2022-08-08T19:51:34.452Z,1.65
2022-08-08T19:54:03.416Z,1.75
2022-08-08T19:56:40.132Z,2.13
2022-08-08T19:59:08.362Z,1.98
2022-08-08T20:01:59.795Z,1.90
2022-08-08T20:04:23.604Z,2.08
2022-08-08T20:06:50.831Z,2.55
2022-08-08T20:09:22.622Z,2.10
2022-08-08T20:11:49.987Z,2.50
2022-08-08T20:14:34.755Z,2.22
2022-08-08T20:17:02.853Z,2.10
2022-08-08T20:19:34.796Z,2.03
2022-08-08T20:22:13.335Z,2.33
2022-08-08T20:24:47.714Z,2.17
2022-08-08T20:27:20.698Z,1.83
2022-08-08T20:30:00.153Z,2.58
2022-08-08T20:32:28.179Z,2.40
2022-08-08T20:35:01.216Z,2.33
2022-08-08T20:37:53.082Z,2.67
2022-08-08T20:40:16.698Z,2.33
2022-08-08T20:42:49.787Z,2.28
2022-08-08T20:45:55.259Z,1.90
2022-08-08T20:48:07.936Z,2.30
2022-08-08T20:50:35.317Z,2.58
2022-08-08T20:53:01.970Z,2.22
2022-08-08T20:55:29.220Z,2.70
2022-08-08T20:58:02.529Z,2.25
2022-08-08T21:00:29.044Z,2.50
2022-08-08T21:02:56.943Z,2.22
2022-08-08T21:05:23.600Z,2.88
2022-08-08T21:08:33.997Z,2.70
2022-08-08T21:10:45.264Z,2.97
2022-08-08T21:13:11.769Z,3.38
2022-08-08T21:16:06.347Z,2.70
2022-08-08T21:18:24.828Z,3.45
2022-08-08T21:20:54.598Z,2.78
2022-08-08T21:23:25.206Z,2.78
2022-08-08T21:26:08.220Z,3.00
2022-08-08T21:28:36.297Z,2.90
2022-08-08T21:31:22.915Z,3.40
2022-08-08T21:33:50.530Z,2.97
2022-08-08T21:36:20.165Z,3.28
2022-08-08T21:38:47.541Z,3.47
2022-08-08T21:41:28.822Z,3.78
2022-08-08T21:44:00.524Z,3.20
2022-08-08T21:48:04.029Z,3.30
2022-08-08T21:49:16.644Z,2.57
2022-08-08T21:54:17.694Z,2.80
2022-08-08T21:54:53.674Z,3.03
2022-08-08T21:57:17.092Z,3.07
2022-08-08T22:00:03.594Z,3.10
2022-08-08T22:02:30.638Z,3.17
2022-08-08T22:04:58.903Z,2.50
2022-08-08T22:07:39.888Z,2.70
2022-08-08T22:10:09.209Z,3.17
2022-08-08T22:12:36.122Z,4.40
2022-08-08T22:15:04.346Z,4.40
2022-08-08T22:17:45.041Z,4.25
2022-08-08T22:20:23.399Z,3.05
2022-08-08T22:22:52.400Z,3.70
2022-08-08T22:25:25.161Z,3.20
2022-08-08T22:28:04.217Z,2.70
2022-08-08T22:30:43.788Z,2.30
2022-08-08T22:34:10.600Z,2.63
2022-08-08T22:36:12.287Z,3.07
2022-08-08T22:38:48.276Z,3.03
2022-08-08T22:41:16.427Z,2.80
2022-08-08T22:44:02.786Z,2.70
2022-08-08T22:46:33.087Z,2.47
2022-08-08T22:48:59.782Z,2.23
2022-08-08T22:51:29.141Z,2.83
2022-08-08T22:54:30.755Z,3.47
2022-08-08T22:56:42.476Z,3.20
2022-08-08T22:59:13.879Z,3.20
2022-08-08T23:02:02.747Z,2.73
2022-08-08T23:04:32.491Z,3.10
2022-08-08T23:07:02.964Z,2.73
2022-08-08T23:09:30.537Z,2.60
2022-08-08T23:12:28.286Z,3.43
2022-08-08T23:14:56.144Z,2.83
2022-08-08T23:17:30.049Z,3.00
2022-08-08T23:19:56.853Z,3.97
2022-08-08T23:22:23.351Z,3.83
2022-08-08T23:24:50.653Z,3.79
2022-08-08T23:27:39.095Z,4.23
2022-08-08T23:30:05.234Z,4.37
2022-08-08T23:32:35.916Z,4.23
2022-08-08T23:35:12.659Z,4.43
2022-08-08T23:38:01.635Z,4.00
2022-08-08T23:40:30.485Z,4.00
2022-08-08T23:42:57.015Z,4.17
2022-08-08T23:49:01.629Z,3.70
2022-08-08T23:49:07.322Z,3.63
2022-08-08T23:50:57.674Z,3.73
2022-08-08T23:54:05.341Z,4.13
2022-08-08T23:56:12.086Z,4.13
2022-08-08T23:58:38.711Z,4.40
